Rio Rancho, NM (87124)

1:14 PM MDT on September 04, 2015 (GMT -0600)
Western Hills | | Change Station
CLOSE
Current Station
Personal Weather Station
Location: Rio Rancho, NM
Elevation: 5486 ft
Nearby Weather Stations

Elev 5486 ft 35.26 °N, 106.69 °W | Updated 7 seconds ago

Mostly Cloudy
Mostly Cloudy
79.0 °F
Feels Like 79 °F
N
6.0
Wind Variable Wind from South
Gusts 8.3 mph

Today
High -- | Low -- °F
--% Chance of Precip.
Yesterday
High -- | Low -- °F
Precip. -- in
6:41 AM 7:29 PM
Waning Gibbous, 57% visible
Pressure 30.16 in
Visibility 10.0 miles
Clouds Scattered Clouds 6000 ft
Mostly Cloudy 10000 ft
Heat Index 79 °F
Dew Point 50 °F
Humidity 37%
Rainfall 0.00 in
Snow Depth Not available.
UV 6 out of 12
Pollen 6.20 out of 12
Air Quality Not available.
Flu Activity Not available.
METAR KAEG 041848Z 17003KT 10SM SCT060 BKN100 26/09 A3016 RMK PO ALQDS
Pressure 30.16 in
Visibility 10.0 miles
Clouds Scattered Clouds 6000 ft
Mostly Cloudy 10000 ft
Heat Index 79 °F
Dew Point 50 °F
Humidity 37%
Rainfall 0.00 in
Snow Depth Not available.
UV 6 out of 12
Pollen 6.20 out of 12
Air Quality Not available.
Flu Activity Not available.
METAR KAEG 041848Z 17003KT 10SM SCT060 BKN100 26/09 A3016 RMK PO ALQDS

10-Day Weather Forecast

×

Almanac

Astronomy

Sep. 04, 2015 Rise Set
Actual Time
Civil Twilight
Nautical Twilight
Astronomical Twilight
Moon
Length of Visible Light
Length of Day
Tomorrow will be .
, % of the Moon is Illuminated

Today's Extremes

State Highs State Lows

Community

WunderPhotos

Upload Photos

1,852,271 photos uploaded!

WunderBlogs® & News

Nearby

Air Quality

  Air Quality AQ Index Pollutant
Not available.

Snow Depth

Station Depth Elevation

Earthquake Activity

City Distance Mag. Time & Date
Minimum magnitude displayed is 2.5.

Coastal Water Temperatures

Place Temperature

Stations

Nearby Weather Stations

Station Location Temp. Windchill Dew Point Humidity Wind Precip. Elev Updated Type